Flight Track Log - Related Links

Times and Time Zones

All times are in EDT time to prevent confusion due to time zone crossing. See the LV-CSD flight status page for this flight to view local times or setup timezone preferences in your user account.

Time Position Orientation Groundspeed Altitude Reporting Facility
EDT Latitude Longitude Course Direction KTS MPH feet Rate Location/Type
Sat 07:19:38 PM 25.7910 -80.2750 90° East 12 14  Level FlightAware ADS-B
Sat 07:22:08 PM 25.7900 -80.2750 180° South 25 Level FlightAware ADS-B
Sat 07:24:00 PM 25.5717 -80.1525 156° South  Level FlightAware Approximate
Sat 07:25:00 PM 25.4553 -80.0881 153° Southeast  Level FlightAware Approximate
Sat 07:26:00 PM 25.3430 -80.0156 146° Southeast  Level FlightAware Approximate
Sat 07:27:00 PM 25.2436 -79.9401 149° Southeast  Level FlightAware Approximate
Sat 07:28:00 PM 25.1322 -79.8658 145° Southeast  Level FlightAware Approximate
Sat 07:29:00 PM 25.0258 -79.7830 145° Southeast  Level FlightAware Approximate
Sat 07:30:00 PM 24.9146 -79.7088 151° Southeast  Level FlightAware Approximate
Sat 07:31:00 PM 24.8044 -79.6340 147° Southeast  Level FlightAware Approximate
Sat 07:32:00 PM 24.6996 -79.5498 156° South  Level FlightAware Approximate
Sat 07:33:00 PM 24.5863 -79.4797 149° Southeast  Level FlightAware Approximate
Sat 07:34:00 PM 24.4781 -79.4002 146° Southeast  Level FlightAware Approximate
Sat 07:35:00 PM 24.3685 -79.3233 149° Southeast  Level FlightAware Approximate
Sat 07:36:00 PM 24.2573 -79.2491 149° Southeast  Level FlightAware Approximate
Sat 07:37:00 PM 24.1461 -79.1750 149° Southeast  Level FlightAware Approximate
Sat 07:38:00 PM 24.0348 -79.1010 149° Southeast  Level FlightAware Approximate
Sat 07:39:00 PM 23.9207 -79.0388 162° South  Level FlightAware Approximate
Sat 07:40:00 PM 23.7968 -78.9954 162° South  Level FlightAware Approximate
Sat 07:41:00 PM 23.6728 -78.9521 162° South  Level FlightAware Approximate
Sat 07:42:00 PM 23.5489 -78.9088 162° South  Level FlightAware Approximate
Sat 07:43:00 PM 23.4249 -78.8656 162° South  Level FlightAware Approximate
Sat 07:44:00 PM 23.3009 -78.8225 162° South  Level FlightAware Approximate
Sat 07:45:00 PM 23.1769 -78.7795 162° South  Level FlightAware Approximate
Sat 07:46:00 PM 23.0529 -78.7366 162° South  Level FlightAware Approximate
Sat 07:47:00 PM 22.9289 -78.6937 162° South  Level FlightAware Approximate
Sat 07:50:00 PM 25.5115 -80.1193 153° Southeast  Level FlightAware Approximate
Sat 07:50:15 PM 25.7880 -80.2810 153° Southeast 82 94  Level FlightAware ADS-B
Sat 07:50:27 PM 25.7870 -80.2880 261° West 125 144 857 Level FlightAware ADS-B
Sat 07:51:11 PM 25.7850 -80.3250 267° West 171 197 800 1,333 Climbing FlightAware ADS-B
Sat 07:51:21 PM 25.7820 -80.3330 247° West 166 191 1,200 1,800 Climbing FlightAware ADS-B
Sat 07:51:51 PM 25.7720 -80.3560 244° Southwest 170 196 2,000 1,200 Climbing FlightAware ADS-B
Sat 07:52:06 PM 25.7640 -80.3650 225° Southwest 184 212 2,100 240 Climbing FlightAware ADS-B
Sat 07:52:16 PM 25.7550 -80.3670 191° South 197 227 2,100 571 Level FlightAware ADS-B
Sat 07:52:48 PM 25.7280 -80.3500 150° Southeast 214 246 2,500 818 Climbing FlightAware ADS-B
Sat 07:53:00 PM 25.7240 -80.3340 106° East 262 302 2,700 1,263 Climbing FlightAware ADS-B
Sat 07:53:26 PM 25.7280 -80.2980 83° East 288 331 3,300 2,036 Climbing FlightAware ADS-B
Sat 07:53:56 PM 25.7340 -80.2550 81° East 288 331 4,600 2,400 Climbing FlightAware ADS-B
Sat 07:54:06 PM 25.7360 -80.2400 82° East 287 330 4,900 1,800 Climbing FlightAware ADS-B
Sat 07:54:36 PM 25.7220 -80.2020 112° Southeast 277 319 5,800 1,867 Climbing FlightAware ADS-B
Sat 07:54:51 PM 25.7060 -80.1900 146° Southeast 274 315 6,300 1,950 Climbing FlightAware ADS-B
Sat 07:55:16 PM 25.6770 -80.1740 154° Southeast 281 323 7,100 1,964 Climbing FlightAware ADS-B
Sat 07:55:46 PM 25.6420 -80.1570 156° South 278 320 8,100 1,950 Climbing FlightAware ADS-B
Sat 07:55:56 PM 25.6290 -80.1510 157° South 285 328 8,400 1,650 Climbing FlightAware ADS-B
Sat 07:56:26 PM 25.5910 -80.1330 157° South 288 331 9,200 1,600 Climbing FlightAware ADS-B
Sat 07:56:56 PM 25.5540 -80.1140 155° Southeast 300 345 10,000 1,200 Climbing FlightAware ADS-B
Sat 07:57:36 PM 25.5010 -80.0880 156° South 316 364 10,600 847 Climbing FlightAware ADS-B
Sat 07:58:21 PM 25.4370 -80.0560 156° South 356 410 11,200 947 Climbing FlightAware ADS-B
Sat 07:59:11 PM 25.3560 -80.0230 160° South 371 427 12,100 1,326 Climbing FlightAware ADS-B
Sat 07:59:56 PM 25.2800 -79.9960 162° South 376 433 13,300 1,465 Climbing FlightAware ADS-B
Sat 08:00:37 PM 25.2130 -79.9710 161° South 392 451 14,200 1,440 Climbing FlightAware ADS-B
Sat 08:01:11 PM 25.1510 -79.9480 161° South 391 450 15,100 1,459 Climbing FlightAware ADS-B
Sat 08:01:51 PM 25.0810 -79.9220 161° South 404 465 16,000 1,350 Climbing FlightAware ADS-B
Sat 08:02:31 PM 25.0070 -79.8950 162° South 410 472 16,900 1,341 Climbing FlightAware ADS-B
Sat 08:03:16 PM 24.9270 -79.8650 161° South 409 471 17,900 1,357 Climbing FlightAware ADS-B
Sat 08:03:55 PM 24.8540 -79.8390 162° South 420 483 18,800 1,271 Climbing FlightAware ADS-B
Sat 08:04:41 PM 24.7700 -79.8080 161° South 427 491 19,700 1,186 Climbing FlightAware ADS-B
Sat 08:05:21 PM 24.6940 -79.7800 161° South 425 489 20,500 1,200 Climbing FlightAware ADS-B
Sat 08:06:01 PM 24.6180 -79.7520 161° South 426 490 21,300 750 Climbing FlightAware ADS-B
Sat 08:07:13 PM 24.4900 -79.7040 161° South 439 505 21,900 333 Climbing FlightAware ADS-B
Sat 08:07:49 PM 24.4320 -79.6820 161° South 439 505 21,900  Level FlightAware ADS-B
Sat 08:08:38 PM 24.3520 -79.6520 161° South 439 505 21,900 1,344 Level FlightAware ADS-B
Sat 08:09:54 PM 24.1725 -79.5875 161° South 444 511 24,700 1,632 Climbing Miami Center
Sat 08:10:54 PM 24.0478 -79.5439 162° South 456 525 25,600 84 Climbing Miami Center
Sat 08:12:00 PM 23.9345 -79.4374 158° South  Level FlightAware Approximate
Sat 08:19:00 PM 23.0951 -79.0663 158° South  Level FlightAware Approximate
Sat 08:20:00 PM 22.9750 -79.0139 158° South  Level FlightAware Approximate
Sat 08:21:00 PM 22.8549 -78.9615 158° South  Level FlightAware Approximate
Sat 08:22:00 PM 22.7348 -78.9092 158° South  Level FlightAware Approximate
Sat 08:23:00 PM 22.6147 -78.8571 158° South  Level FlightAware Approximate
Sat 08:24:00 PM 22.4946 -78.8050 158° South  Level FlightAware Approximate
Sat 08:25:00 PM 22.3745 -78.7530 158° South  Level FlightAware Approximate
Sat 08:26:00 PM 22.2543 -78.7011 158° South  Level FlightAware Approximate
Sat 08:27:00 PM 22.1341 -78.6493 158° South  Level FlightAware Approximate
Sat 08:28:00 PM 22.0140 -78.5975 158° South  Level FlightAware Approximate
Sat 08:29:00 PM 21.8937 -78.5459 158° South  Level FlightAware Approximate
Sat 08:30:00 PM 21.7735 -78.4944 158° South  Level FlightAware Approximate
Sat 08:31:00 PM 21.6533 -78.4429 158° South  Level FlightAware Approximate
Sat 08:32:00 PM 21.5330 -78.3915 158° South  Level FlightAware Approximate
Sat 08:33:00 PM 21.4128 -78.3402 158° South  Level FlightAware Approximate
Sat 08:34:00 PM 21.2925 -78.2890 158° South  Level FlightAware Approximate
Sat 08:35:00 PM 21.1722 -78.2379 158° South  Level FlightAware Approximate
Sat 08:36:00 PM 21.0519 -78.1868 158° South  Level FlightAware Approximate
Sat 08:37:00 PM 20.9315 -78.1359 158° South  Level FlightAware Approximate
Sat 08:38:00 PM 20.8112 -78.0850 158° South  Level FlightAware Approximate
Sat 08:39:00 PM 20.6908 -78.0342 158° South  Level FlightAware Approximate
Sat 08:40:00 PM 20.5705 -77.9835 158° South  Level FlightAware Approximate
Sat 08:41:00 PM 20.4501 -77.9328 158° South  Level FlightAware Approximate
Sat 08:42:00 PM 20.3297 -77.8823 159° South  Level FlightAware Approximate
Sat 08:43:00 PM 20.2093 -77.8318 159° South  Level FlightAware Approximate
Sat 08:44:00 PM 20.0888 -77.7814 159° South  Level FlightAware Approximate
Sat 08:45:00 PM 19.9684 -77.7311 159° South  Level FlightAware Approximate
Sat 08:46:00 PM 19.8479 -77.6808 159° South  Level FlightAware Approximate
Sat 08:47:00 PM 19.7274 -77.6307 159° South  Level FlightAware Approximate
Sat 08:48:00 PM 19.6070 -77.5806 159° South  Level FlightAware Approximate
Sat 08:49:00 PM 19.4852 -77.5342 163° South  Level FlightAware Approximate
Sat 08:50:00 PM 19.3616 -77.4937 163° South  Level FlightAware Approximate
Sat 08:51:00 PM 19.2380 -77.4533 163° South  Level FlightAware Approximate
Sat 08:52:00 PM 19.1143 -77.4129 163° South  Level FlightAware Approximate
Sat 08:53:00 PM 18.9907 -77.3726 163° South  Level FlightAware Approximate
Sat 08:54:00 PM 18.8670 -77.3323 163° South  Level FlightAware Approximate
Sat 08:55:00 PM 18.7433 -77.2921 163° South  Level FlightAware Approximate
Sat 08:56:00 PM 18.6197 -77.2520 163° South  Level FlightAware Approximate
Sat 08:57:00 PM 18.4960 -77.2119 163° South  Level FlightAware Approximate
Sat 08:58:00 PM 18.3723 -77.1718 163° South  Level FlightAware Approximate
Sat 08:59:00 PM 18.2486 -77.1319 163° South  Level FlightAware Approximate
Sat 09:00:00 PM 18.1249 -77.0920 163° South  Level FlightAware Approximate
Sat 09:01:00 PM 18.0012 -77.0521 163° South  Level FlightAware Approximate
Sat 09:02:00 PM 17.8774 -77.0123 163° South  Level FlightAware Approximate
Sat 09:03:00 PM 17.7537 -76.9725 163° South  Level FlightAware Approximate
Sat 09:04:00 PM 17.6299 -76.9329 163° South  Level FlightAware Approximate
Sat 09:05:00 PM 17.5062 -76.8932 163° South  Level FlightAware Approximate
Sat 09:06:00 PM 17.3824 -76.8536 163° South  Level FlightAware Approximate
Sat 09:07:00 PM 17.2586 -76.8141 163° South  Level FlightAware Approximate
Sat 09:08:00 PM 17.1349 -76.7745 163° South  Level FlightAware Approximate
Sat 09:09:00 PM 17.0111 -76.7350 163° South  Level FlightAware Approximate
Sat 09:10:00 PM 16.8874 -76.6955 163° South  Level FlightAware Approximate
Sat 09:11:00 PM 16.7636 -76.6561 163° South  Level FlightAware Approximate
Sat 09:12:00 PM 16.6398 -76.6167 163° South  Level FlightAware Approximate
Sat 09:13:00 PM 16.5160 -76.5774 163° South  Level FlightAware Approximate
Sat 09:14:00 PM 16.3922 -76.5381 163° South  Level FlightAware Approximate
Sat 09:15:00 PM 16.2684 -76.4989 163° South  Level FlightAware Approximate
Sat 09:16:00 PM 16.1446 -76.4598 163° South  Level FlightAware Approximate
Sat 09:17:00 PM 16.0208 -76.4206 163° South  Level FlightAware Approximate
Sat 09:18:00 PM 15.8970 -76.3816 163° South  Level FlightAware Approximate
Sat 09:19:00 PM 15.7732 -76.3426 163° South  Level FlightAware Approximate
Sat 09:20:00 PM 15.6493 -76.3036 163° South  Level FlightAware Approximate
Sat 09:21:00 PM 15.5255 -76.2646 163° South  Level FlightAware Approximate
Sat 09:22:00 PM 15.4016 -76.2258 163° South  Level FlightAware Approximate
Sat 09:23:00 PM 15.2778 -76.1869 163° South  Level FlightAware Approximate
Sat 09:24:00 PM 15.1539 -76.1481 163° South  Level FlightAware Approximate
Sat 09:25:00 PM 15.0301 -76.1094 163° South  Level FlightAware Approximate
Sat 09:26:00 PM 14.9062 -76.0706 163° South  Level FlightAware Approximate
Sat 09:27:00 PM 14.7823 -76.0319 163° South  Level FlightAware Approximate
Sat 09:28:00 PM 14.6585 -75.9933 163° South  Level FlightAware Approximate
Sat 09:29:00 PM 14.5346 -75.9547 163° South  Level FlightAware Approximate
Sat 09:30:00 PM 14.4107 -75.9161 163° South  Level FlightAware Approximate
Sat 09:31:00 PM 14.2868 -75.8775 163° South  Level FlightAware Approximate
Sat 09:32:00 PM 14.1629 -75.8390 163° South  Level FlightAware Approximate
Sat 09:33:00 PM 14.0390 -75.8006 163° South  Level FlightAware Approximate
Sat 09:34:00 PM 13.9151 -75.7622 163° South  Level FlightAware Approximate
Sat 09:35:00 PM 13.7912 -75.7238 163° South  Level FlightAware Approximate
Sat 09:36:00 PM 13.6673 -75.6855 163° South  Level FlightAware Approximate
Sat 09:37:00 PM 13.5433 -75.6472 163° South  Level FlightAware Approximate
Sat 09:38:00 PM 13.4194 -75.6089 163° South  Level FlightAware Approximate
Sat 09:39:00 PM 13.2955 -75.5707 163° South  Level FlightAware Approximate
Sat 09:40:00 PM 13.1715 -75.5326 163° South  Level FlightAware Approximate
Sat 09:41:00 PM 13.0476 -75.4944 163° South  Level FlightAware Approximate
Sat 09:42:00 PM 12.9236 -75.4563 163° South  Level FlightAware Approximate
Sat 09:43:00 PM 12.7997 -75.4183 163° South  Level FlightAware Approximate
Sat 09:44:00 PM 12.6757 -75.3803 163° South  Level FlightAware Approximate
Sat 09:45:00 PM 12.5517 -75.3423 163° South  Level FlightAware Approximate
Sat 09:46:00 PM 12.4277 -75.3043 163° South  Level FlightAware Approximate
Sat 09:47:00 PM 12.3038 -75.2664 163° South  Level FlightAware Approximate
Sat 09:48:00 PM 12.1797 -75.2289 164° South  Level FlightAware Approximate
Sat 09:49:00 PM 12.0555 -75.1918 164° South  Level FlightAware Approximate
Sat 09:49:17 PM 11.6840 -75.0910 164° South 464 534 33,000  Level FlightAware ADS-B
Sat 09:49:58 PM 11.6000 -75.0700 166° South 463 533 33,000  Level FlightAware ADS-B
Sat 09:50:00 PM 11.9313 -75.1547 164° South  Level FlightAware Approximate
Sat 09:50:32 PM 11.5240 -75.0490 165° South 462 532 33,000  Level FlightAware ADS-B
Sat 09:51:12 PM 11.4490 -75.0300 166° South 462 532 33,000  Level FlightAware ADS-B
Sat 09:52:02 PM 11.3360 -75.0010 166° South 463 533 33,000  Level FlightAware ADS-B
Sat 09:52:30 PM 11.2870 -74.9880 165° South 463 533 33,000  Level FlightAware ADS-B
Sat 09:53:17 PM 11.1800 -74.9600 166° South 463 533 33,000  Level FlightAware ADS-B
Sat 09:54:02 PM 11.0880 -74.9360 166° South 463 533 33,000  Level FlightAware ADS-B
Sat 09:54:42 PM 11.0060 -74.9140 165° South 461 531 33,000  Level FlightAware ADS-B
Sat 09:55:22 PM 10.9200 -74.8920 166° South 463 533 33,000  Level FlightAware ADS-B
Sat 09:56:02 PM 10.8410 -74.8720 166° South 464 534 33,000  Level FlightAware ADS-B
Sat 09:56:47 PM 10.7460 -74.8460 165° South 466 536 33,000  Level FlightAware ADS-B
Sat 09:57:22 PM 10.6700 -74.8250 165° South 466 536 33,000  Level FlightAware ADS-B
Sat 09:58:32 PM 10.5320 -74.7850 164° South 467 537 33,000  Level FlightAware ADS-B
Sat 09:59:12 PM 10.4440 -74.7600 164° South 478 550 33,000  Level FlightAware ADS-B
Sat 09:59:47 PM 10.3660 -74.7380 164° South 461 531 33,000  Level FlightAware ADS-B
Sat 10:00:49 PM 10.2660 -74.7100 165° South 459 528 33,000  Level FlightAware ADS-B
Sat 10:01:28 PM 10.1600 -74.6800 164° South 462 532 33,000  Level FlightAware ADS-B
Sat 10:02:27 PM 10.0500 -74.6480 164° South 464 534 33,000  Level FlightAware ADS-B
Sat 10:03:07 PM 9.9530 -74.6210 165° South 467 537 33,000  Level FlightAware ADS-B
Sat 10:03:47 PM 9.8740 -74.5990 165° South 466 536 33,000  Level FlightAware ADS-B
Sat 10:04:32 PM 9.7750 -74.5710 164° South 465 535 33,000  Level FlightAware ADS-B
Sat 10:05:22 PM 9.6710 -74.5420 165° South 463 533 33,000  Level FlightAware ADS-B
Sat 10:06:02 PM 9.5880 -74.5190 165° South 463 533 33,000  Level FlightAware ADS-B
Sat 10:06:47 PM 9.4950 -74.4920 164° South 463 533 33,000  Level FlightAware ADS-B
Sat 10:07:28 PM 9.4150 -74.4700 165° South 463 533 33,000  Level FlightAware ADS-B
Sat 10:08:07 PM 9.3300 -74.4460 164° South 463 533 33,000  Level FlightAware ADS-B
Sat 10:08:47 PM 9.2470 -74.4230 165° South 463 533 33,000  Level FlightAware ADS-B
Sat 10:09:33 PM 9.1560 -74.3970 164° South 461 531 33,000  Level FlightAware ADS-B
Sat 10:10:12 PM 9.0720 -74.3740 165° South 462 532 33,000  Level FlightAware ADS-B
Sat 10:10:52 PM 8.9880 -74.3500 164° South 467 537 33,000  Level FlightAware ADS-B
Sat 10:11:23 PM 8.9250 -74.3320 164° South 476 548 33,000  Level FlightAware ADS-B
Sat 10:12:09 PM 8.8240 -74.3040 165° South 477 549 33,000  Level FlightAware ADS-B
Sat 10:12:49 PM 8.7470 -74.2830 165° South 477 549 33,000  Level FlightAware ADS-B
Sat 10:13:35 PM 8.6460 -74.2540 164° South 477 549 33,000  Level FlightAware ADS-B
Sat 10:14:15 PM 8.5610 -74.2300 164° South 477 549 33,000  Level FlightAware ADS-B
Sat 10:14:56 PM 8.4740 -74.2060 165° South 477 549 33,000  Level FlightAware ADS-B
Sat 10:15:40 PM 8.3730 -74.1780 165° South 479 551 33,000  Level FlightAware ADS-B
Sat 10:16:20 PM 8.2890 -74.1540 164° South 480 552 33,000  Level FlightAware ADS-B
Sat 10:17:01 PM 8.2020 -74.1300 165° South 480 552 33,000  Level FlightAware ADS-B
Sat 10:17:56 PM 8.0850 -74.0970 164° South 478 550 33,000  Level FlightAware ADS-B
Sat 10:18:36 PM 7.9970 -74.0730 165° South 477 549 33,000  Level FlightAware ADS-B
Sat 10:19:16 PM 7.9120 -74.0490 164° South 476 548 33,000  Level FlightAware ADS-B
Sat 10:19:57 PM 7.8280 -74.0260 165° South 472 543 33,000  Level FlightAware ADS-B
Sat 10:20:31 PM 7.7530 -74.0060 165° South 473 544 33,000  Level FlightAware ADS-B
Sat 10:21:17 PM 7.6630 -73.9810 165° South 474 545 33,000  Level FlightAware ADS-B
Sat 10:21:57 PM 7.5720 -73.9560 165° South 475 547 33,000  Level FlightAware ADS-B
Sat 10:22:41 PM 7.4760 -73.9290 164° South 475 547 33,000  Level FlightAware ADS-B
Sat 10:23:21 PM 7.3920 -73.9060 165° South 473 544 33,000  Level FlightAware ADS-B
Sat 10:24:03 PM 7.3170 -73.8860 165° South 473 544 33,000  Level FlightAware ADS-B
Sat 10:24:47 PM 7.2250 -73.8600 164° South 472 543 33,000  Level FlightAware ADS-B
Sat 10:25:23 PM 7.1600 -73.8430 165° South 472 543 33,000  Level FlightAware ADS-B
Sat 10:26:01 PM 7.0580 -73.8140 164° South 472 543 33,000  Level FlightAware ADS-B
Sat 10:26:54 PM 6.9420 -73.7830 165° South 472 543 33,000  Level FlightAware ADS-B
Sat 10:27:39 PM 6.8450 -73.7580 166° South 473 544 33,000  Level FlightAware ADS-B
Sat 10:28:19 PM 6.7660 -73.7380 166° South 474 545 33,000  Level FlightAware ADS-B
Sat 10:29:04 PM 6.6670 -73.7120 165° South 472 543 33,000  Level FlightAware ADS-B
Sat 10:29:44 PM 6.5810 -73.6890 165° South 472 543 33,000  Level FlightAware ADS-B
Sat 10:30:20 PM 6.5040 -73.6690 166° South 473 544 33,000  Level FlightAware ADS-B
Sat 10:31:04 PM 6.4110 -73.6450 166° South 473 544 33,000  Level FlightAware ADS-B
Sat 10:31:44 PM 6.3240 -73.6220 165° South 472 543 33,000  Level FlightAware ADS-B
Sat 10:32:20 PM 6.2510 -73.6030 165° South 472 543 33,000  Level FlightAware ADS-B
Sat 10:33:04 PM 6.1550 -73.5780 165° South 473 544 33,000  Level FlightAware ADS-B
Sat 10:33:44 PM 6.0710 -73.5540 164° South 473 544 33,000  Level FlightAware ADS-B
Sat 10:34:26 PM 5.9840 -73.5200 159° South 473 544 33,000  Level FlightAware ADS-B
Sat 10:35:10 PM 5.8990 -73.4750 152° Southeast 466 536 33,000  Level FlightAware ADS-B
Sat 10:35:49 PM 5.8270 -73.4370 152° Southeast 456 525 33,000  Level FlightAware ADS-B
Sat 10:36:35 PM 5.7370 -73.3930 154° Southeast 470 541 33,000  Level FlightAware ADS-B
Sat 10:37:11 PM 5.6650 -73.3650 159° South 469 540 33,000  Level FlightAware ADS-B
Sat 10:37:51 PM 5.5780 -73.3440 166° South 472 543 33,000  Level FlightAware ADS-B
Sat 10:38:31 PM 5.4930 -73.3270 169° South 472 543 33,000  Level FlightAware ADS-B
Sat 10:39:11 PM 5.4070 -73.3100 169° South 473 544 33,000  Level FlightAware ADS-B
Sat 10:39:47 PM 5.3280 -73.2940 169° South 471 542 33,000  Level FlightAware ADS-B
Sat 10:40:31 PM 5.2350 -73.2750 169° South 469 540 33,000  Level FlightAware ADS-B
Sat 10:41:11 PM 5.1490 -73.2590 170° South 470 541 33,000  Level FlightAware ADS-B
Sat 10:41:55 PM 5.0560 -73.2410 169° South 470 541 33,000  Level FlightAware ADS-B
Sat 10:42:35 PM 4.9680 -73.2240 169° South 468 539 33,000  Level FlightAware ADS-B
Sat 10:43:19 PM 4.8740 -73.2070 170° South 467 537 33,000  Level FlightAware ADS-B
Sat 10:43:59 PM 4.7890 -73.1910 169° South 468 539 33,000  Level FlightAware ADS-B
Sat 10:44:35 PM 4.7120 -73.1780 170° South 468 539 33,000  Level FlightAware ADS-B
Sat 10:45:20 PM 4.6170 -73.1610 170° South 467 537 33,000  Level FlightAware ADS-B
Sat 10:46:01 PM 4.5280 -73.1450 170° South 466 536 33,000  Level FlightAware ADS-B
Sat 10:46:37 PM 4.4520 -73.1310 170° South 466 536 33,000  Level FlightAware ADS-B
Sat 10:47:30 PM 4.3500 -73.1120 169° South 467 537 33,000  Level FlightAware ADS-B
Sat 10:48:06 PM 4.2850 -73.1000 170° South 467 537 33,000  Level FlightAware ADS-B
Sat 10:48:54 PM 4.1990 -73.0830 169° South 467 537 33,000  Level FlightAware ADS-B
Sat 10:49:30 PM 4.1340 -73.0700 169° South 467 537 33,000  Level FlightAware ADS-B
Sat 10:50:18 PM 4.0470 -73.0530 169° South 467 537 33,000  Level FlightAware ADS-B
Sat 10:50:54 PM 3.9830 -73.0410 169° South 467 537 33,000  Level FlightAware ADS-B
Sat 10:51:43 PM 3.8940 -73.0230 169° South 467 537 33,000  Level FlightAware ADS-B
Sat 10:52:19 PM 3.8290 -73.0110 170° South 467 537 33,000  Level FlightAware ADS-B
Sat 10:53:07 PM 3.7430 -72.9940 169° South 467 537 33,000  Level FlightAware ADS-B
Sat 10:53:43 PM 3.6780 -72.9810 169° South 467 537 33,000  Level FlightAware ADS-B
Sat 10:54:31 PM 3.5910 -72.9640 169° South 467 537 33,000  Level FlightAware ADS-B
Sat 10:55:07 PM 3.5260 -72.9520 170° South 467 537 33,000  Level FlightAware ADS-B
Sat 10:55:43 PM 3.4620 -72.9390 169° South 467 537 33,000  Level FlightAware ADS-B
Sat 10:56:31 PM 3.3750 -72.9220 169° South 467 537 33,000 -31 Level FlightAware ADS-B
Sat 10:59:00 PM 3.0699 -72.8209 162° South  Level Estimated
Sat 11:00:00 PM 2.9471 -72.7803 162° South  Level Estimated
Sat 11:01:00 PM 2.8242 -72.7396 162° South  Level Estimated
Sat 11:02:00 PM 2.7014 -72.6989 162° South  Level Estimated
Sat 11:03:00 PM 2.5785 -72.6583 162° South  Level Estimated
Sat 11:04:00 PM 2.4556 -72.6176 162° South  Level Estimated
Sat 11:05:00 PM 2.3328 -72.5770 162° South  Level Estimated
Sat 11:06:00 PM 2.2099 -72.5364 162° South  Level Estimated
Sat 11:07:00 PM 2.0871 -72.4957 162° South  Level Estimated
Sat 11:08:00 PM 1.9642 -72.4551 162° South  Level Estimated
Sat 11:09:00 PM 1.8413 -72.4145 162° South  Level Estimated
Sat 11:10:00 PM 1.7185 -72.3739 162° South  Level Estimated
Sat 11:11:00 PM 1.5956 -72.3333 162° South  Level Estimated
Sat 11:12:00 PM 1.4727 -72.2927 162° South  Level Estimated
Sat 11:13:00 PM 1.3499 -72.2521 162° South  Level Estimated
Sat 11:14:00 PM 1.2270 -72.2115 162° South  Level Estimated
Sat 11:15:00 PM 1.1041 -72.1709 162° South  Level Estimated
Sat 11:16:00 PM 0.9813 -72.1304 162° South  Level Estimated
Sat 11:17:00 PM 0.8584 -72.0898 162° South  Level Estimated
Sat 11:18:00 PM 0.7355 -72.0492 162° South  Level Estimated
Sat 11:19:00 PM 0.6126 -72.0086 162° South  Level Estimated
Sat 11:20:00 PM 0.4898 -71.9681 162° South  Level Estimated
Sat 11:21:00 PM 0.3669 -71.9275 162° South  Level Estimated
Sat 11:22:00 PM 0.2440 -71.8869 162° South  Level Estimated
Sat 11:23:00 PM 0.1212 -71.8464 162° South  Level Estimated
Sat 11:24:00 PM -0.0017 -71.8058 162° South  Level Estimated
Sat 11:25:00 PM -0.1246 -71.7652 162° South  Level Estimated
Sat 11:26:00 PM -0.2474 -71.7246 162° South  Level Estimated
Sat 11:27:00 PM -0.3703 -71.6841 162° South  Level Estimated
Sat 11:28:00 PM -0.4932 -71.6435 162° South  Level Estimated
Sat 11:29:00 PM -0.6161 -71.6029 162° South  Level Estimated
Sat 11:30:00 PM -0.7389 -71.5624 162° South  Level Estimated
Sat 11:31:00 PM -0.8618 -71.5218 162° South  Level Estimated
Sat 11:32:00 PM -0.9847 -71.4812 162° South  Level Estimated
Sat 11:33:00 PM -1.1075 -71.4406 162° South  Level Estimated
Sat 11:34:00 PM -1.2304 -71.4000 162° South  Level Estimated
Sat 11:35:00 PM -1.3533 -71.3595 162° South  Level Estimated
Sat 11:36:00 PM -1.4761 -71.3189 162° South  Level Estimated
Sat 11:37:00 PM -1.5990 -71.2783 162° South  Level Estimated
Sat 11:38:00 PM -1.7219 -71.2377 162° South  Level Estimated
Sat 11:39:00 PM -1.8447 -71.1971 162° South  Level Estimated
Sat 11:40:00 PM -1.9676 -71.1564 162° South  Level Estimated
Sat 11:41:00 PM -2.0905 -71.1158 162° South  Level Estimated
Sat 11:42:00 PM -2.2133 -71.0752 162° South  Level Estimated
Sat 11:43:00 PM -2.3362 -71.0346 162° South  Level Estimated
Sat 11:44:00 PM -2.4590 -70.9939 162° South  Level Estimated
Sat 11:45:00 PM -2.5819 -70.9533 162° South  Level Estimated
Sat 11:46:00 PM -2.7048 -70.9126 162° South  Level Estimated
Sat 11:47:00 PM -2.8276 -70.8720 162° South  Level Estimated
Sat 11:48:00 PM -2.9505 -70.8313 162° South  Level Estimated
Sat 11:49:00 PM -3.0733 -70.7906 162° South  Level Estimated
Sat 11:50:00 PM -3.1962 -70.7499 162° South  Level Estimated
Sat 11:51:00 PM -3.3190 -70.7092 162° South  Level Estimated
Sat 11:52:00 PM -3.4419 -70.6685 162° South  Level Estimated
Sat 11:53:00 PM -3.5647 -70.6278 162° South  Level Estimated
Sat 11:54:00 PM -3.6876 -70.5871 162° South  Level Estimated
Sat 11:55:00 PM -3.8104 -70.5463 162° South  Level Estimated
Sat 11:56:00 PM -3.9332 -70.5056 162° South  Level Estimated
Sat 11:57:00 PM -4.0561 -70.4648 162° South  Level Estimated
Sat 11:58:00 PM -4.1789 -70.4240 162° South  Level Estimated
Sat 11:59:00 PM -4.3018 -70.3833 162° South  Level Estimated
Sun 12:00:00 AM -4.4246 -70.3425 162° South  Level Estimated
Sun 12:01:00 AM -4.5474 -70.3016 162° South  Level Estimated
Sun 12:02:00 AM -4.6702 -70.2608 162° South  Level Estimated
Sun 12:03:00 AM -4.7931 -70.2200 162° South  Level Estimated
Sun 12:04:00 AM -4.9159 -70.1791 162° South  Level Estimated
Sun 12:05:00 AM -5.0387 -70.1382 162° South  Level Estimated
Sun 12:06:00 AM -5.1615 -70.0973 162° South  Level Estimated
Sun 12:07:00 AM -5.2843 -70.0564 162° South  Level Estimated
Sun 12:08:00 AM -5.4071 -70.0155 162° South  Level Estimated
Sun 12:09:00 AM -5.5300 -69.9746 162° South  Level Estimated
Sun 12:10:00 AM -5.6528 -69.9336 162° South  Level Estimated
Sun 12:11:00 AM -5.7756 -69.8926 162° South  Level Estimated
Sun 12:12:00 AM -5.8984 -69.8516 162° South  Level Estimated
Sun 12:13:00 AM -6.0212 -69.8106 162° South  Level Estimated
Sun 12:14:00 AM -6.1439 -69.7696 162° South  Level Estimated
Sun 12:15:00 AM -6.2667 -69.7286 162° South  Level Estimated
Sun 12:16:00 AM -6.3895 -69.6875 162° South  Level Estimated
Sun 12:17:00 AM -6.5123 -69.6464 162° South  Level Estimated
Sun 12:18:00 AM -6.6351 -69.6053 162° South  Level Estimated
Sun 12:19:00 AM -6.7579 -69.5642 162° South  Level Estimated
Sun 12:20:00 AM -6.8807 -69.5230 162° South  Level Estimated
Sun 12:21:00 AM -7.0034 -69.4818 162° South  Level Estimated
Sun 12:22:00 AM -7.1262 -69.4407 162° South  Level Estimated
Sun 12:23:00 AM -7.2490 -69.3994 162° South  Level Estimated
Sun 12:24:00 AM -7.3717 -69.3582 162° South  Level Estimated
Sun 12:25:00 AM -7.4945 -69.3169 162° South  Level Estimated
Sun 12:26:00 AM -7.6172 -69.2757 162° South  Level Estimated
Sun 12:27:00 AM -7.7400 -69.2344 162° South  Level Estimated
Sun 12:28:00 AM -7.8627 -69.1930 162° South  Level Estimated
Sun 12:29:00 AM -7.9855 -69.1517 162° South  Level Estimated
Sun 12:30:00 AM -8.1082 -69.1103 162° South  Level Estimated
Sun 12:31:00 AM -8.2309 -69.0689 162° South  Level Estimated
Sun 12:32:00 AM -8.3537 -69.0275 162° South  Level Estimated
Sun 12:33:00 AM -8.4764 -68.9860 162° South  Level Estimated
Sun 12:34:00 AM -8.5991 -68.9445 162° South  Level Estimated
Sun 12:35:00 AM -8.7218 -68.9030 162° South  Level Estimated
Sun 12:36:00 AM -8.8445 -68.8615 162° South  Level Estimated
Sun 12:37:00 AM -8.9672 -68.8199 162° South  Level Estimated
Sun 12:38:00 AM -9.0899 -68.7784 161° South  Level Estimated
Sun 12:39:00 AM -9.2127 -68.7367 161° South  Level Estimated
Sun 12:40:00 AM -9.3353 -68.6951 161° South  Level Estimated
Sun 12:41:00 AM -9.4580 -68.6534 161° South  Level Estimated
Sun 12:42:00 AM -9.5807 -68.6117 161° South  Level Estimated
Sun 12:43:00 AM -9.7034 -68.5699 161° South  Level Estimated
Sun 12:44:00 AM -9.8261 -68.5282 161° South  Level Estimated
Sun 12:45:00 AM -9.9487 -68.4864 161° South  Level Estimated
Sun 12:46:00 AM -10.0714 -68.4445 161° South  Level Estimated
Sun 12:47:00 AM -10.1940 -68.4027 161° South  Level Estimated
Sun 12:48:00 AM -10.3167 -68.3608 161° South  Level Estimated
Sun 12:49:00 AM -10.4394 -68.3189 161° South  Level Estimated
Sun 12:50:00 AM -10.5620 -68.2769 161° South  Level Estimated
Sun 12:51:00 AM -10.6846 -68.2349 161° South  Level Estimated
Sun 12:52:00 AM -10.8073 -68.1929 161° South  Level Estimated
Sun 12:53:00 AM -10.9299 -68.1508 161° South  Level Estimated
Sun 12:54:00 AM -11.0525 -68.1087 161° South  Level Estimated
Sun 12:55:00 AM -11.1751 -68.0666 161° South  Level Estimated
Sun 12:56:00 AM -11.2977 -68.0244 161° South  Level Estimated
Sun 12:57:00 AM -11.4203 -67.9822 161° South  Level Estimated
Sun 12:58:00 AM -11.5429 -67.9400 161° South  Level Estimated
Sun 12:59:00 AM -11.6655 -67.8977 161° South  Level Estimated
Sun 01:00:00 AM -11.7881 -67.8554 161° South  Level Estimated
Sun 01:01:00 AM -11.9107 -67.8130 161° South  Level Estimated
Sun 01:02:00 AM -12.0332 -67.7706 161° South  Level Estimated
Sun 01:03:00 AM -12.1558 -67.7282 161° South  Level Estimated
Sun 01:04:00 AM -12.2783 -67.6857 161° South  Level Estimated
Sun 01:05:00 AM -12.4009 -67.6432 161° South  Level Estimated
Sun 01:06:00 AM -12.5234 -67.6007 161° South  Level Estimated
Sun 01:07:00 AM -12.6460 -67.5581 161° South  Level Estimated
Sun 01:08:00 AM -12.7685 -67.5155 161° South  Level Estimated
Sun 01:09:00 AM -12.8910 -67.4728 161° South  Level Estimated
Sun 01:10:00 AM -13.0135 -67.4301 161° South  Level Estimated
Sun 01:11:00 AM -13.1361 -67.3873 161° South  Level Estimated
Sun 01:12:00 AM -13.2586 -67.3445 161° South  Level Estimated
Sun 01:13:00 AM -13.3811 -67.3017 161° South  Level Estimated
Sun 01:14:00 AM -13.5035 -67.2588 161° South  Level Estimated
Sun 01:15:00 AM -13.6260 -67.2159 161° South  Level Estimated
Sun 01:16:00 AM -13.7485 -67.1729 161° South  Level Estimated
Sun 01:17:00 AM -13.8710 -67.1299 161° South  Level Estimated
Sun 01:18:00 AM -13.9934 -67.0868 161° South  Level Estimated
Sun 01:19:00 AM -14.1159 -67.0437 161° South  Level Estimated
Sun 01:20:00 AM -14.2383 -67.0005 161° South  Level Estimated
Sun 01:21:00 AM -14.3607 -66.9574 161° South  Level Estimated
Sun 01:22:00 AM -14.4832 -66.9141 161° South  Level Estimated
Sun 01:23:00 AM -14.6056 -66.8708 161° South  Level Estimated
Sun 01:24:00 AM -14.7280 -66.8275 161° South  Level Estimated
Sun 01:25:00 AM -14.8504 -66.7841 161° South  Level Estimated
Sun 01:26:00 AM -14.9728 -66.7406 161° South  Level Estimated
Sun 01:27:00 AM -15.0952 -66.6971 161° South  Level Estimated
Sun 01:28:00 AM -15.2176 -66.6536 161° South  Level Estimated
Sun 01:29:00 AM -15.3399 -66.6100 161° South  Level Estimated
Sun 01:30:00 AM -15.4623 -66.5664 161° South  Level Estimated
Sun 01:31:00 AM -15.5847 -66.5227 161° South  Level Estimated
Sun 01:32:00 AM -15.7070 -66.4789 161° South  Level Estimated
Sun 01:33:00 AM -15.8293 -66.4351 161° South  Level Estimated
Sun 01:34:00 AM -15.9517 -66.3913 161° South  Level Estimated
Sun 01:35:00 AM -16.0740 -66.3473 161° South  Level Estimated
Sun 01:36:00 AM -16.1963 -66.3034 161° South  Level Estimated
Sun 01:37:00 AM -16.3186 -66.2594 161° South  Level Estimated
Sun 01:38:00 AM -16.4409 -66.2153 161° South  Level Estimated
Sun 01:39:00 AM -16.5632 -66.1712 161° South  Level Estimated
Sun 01:40:00 AM -16.6854 -66.1270 161° South  Level Estimated
Sun 01:41:00 AM -16.8077 -66.0827 161° South  Level Estimated
Sun 01:42:00 AM -16.9299 -66.0384 161° South  Level Estimated
Sun 01:43:00 AM -17.0522 -65.9941 161° South  Level Estimated
Sun 01:44:00 AM -17.1744 -65.9497 161° South  Level Estimated
Sun 01:45:00 AM -17.2966 -65.9052 161° South  Level Estimated
Sun 01:46:00 AM -17.4188 -65.8607 161° South  Level Estimated
Sun 01:47:00 AM -17.5410 -65.8161 161° South  Level Estimated
Sun 01:48:00 AM -17.6632 -65.7714 161° South  Level Estimated
Sun 01:49:00 AM -17.7854 -65.7267 161° South  Level Estimated
Sun 01:50:00 AM -17.9076 -65.6820 161° South  Level Estimated
Sun 01:51:00 AM -18.0297 -65.6371 161° South  Level Estimated
Sun 01:52:00 AM -18.1519 -65.5922 161° South  Level Estimated
Sun 01:53:00 AM -18.2740 -65.5473 161° South  Level Estimated
Sun 01:54:00 AM -18.3962 -65.5023 161° South  Level Estimated
Sun 01:55:00 AM -18.5183 -65.4572 161° South  Level Estimated
Sun 01:56:00 AM -18.6404 -65.4120 161° South  Level Estimated
Sun 01:57:00 AM -18.7625 -65.3668 161° South  Level Estimated
Sun 01:58:00 AM -18.8846 -65.3215 161° South  Level Estimated
Sun 01:59:00 AM -19.0067 -65.2762 161° South  Level Estimated
Sun 02:00:00 AM -19.1287 -65.2308 161° South  Level Estimated
Sun 02:01:00 AM -19.2508 -65.1853 161° South  Level Estimated
Sun 02:02:00 AM -19.3728 -65.1397 161° South  Level Estimated
Sun 02:03:00 AM -19.4949 -65.0941 161° South  Level Estimated
Sun 02:04:00 AM -19.6169 -65.0484 161° South  Level Estimated
Sun 02:05:00 AM -19.7389 -65.0026 161° South  Level Estimated
Sun 02:06:00 AM -19.8609 -64.9568 161° South  Level Estimated
Sun 02:07:00 AM -19.9829 -64.9109 161° South  Level Estimated
Sun 02:08:00 AM -20.1049 -64.8650 161° South  Level Estimated
Sun 02:09:00 AM -20.2268 -64.8189 160° South  Level Estimated
Sun 02:10:00 AM -20.3488 -64.7728 160° South  Level Estimated
Sun 02:11:00 AM -20.4707 -64.7266 160° South  Level Estimated
Sun 02:12:00 AM -20.5926 -64.6804 160° South  Level Estimated
Sun 02:13:00 AM -20.7146 -64.6340 160° South  Level Estimated
Sun 02:14:00 AM -20.8365 -64.5876 160° South  Level Estimated
Sun 02:15:00 AM -20.9584 -64.5411 160° South  Level Estimated
Sun 02:16:00 AM -21.0802 -64.4946 160° South  Level Estimated
Sun 02:17:00 AM -21.2021 -64.4480 160° South  Level Estimated
Sun 02:18:00 AM -21.3240 -64.4012 160° South  Level Estimated
Sun 02:19:00 AM -21.4458 -64.3544 160° South  Level Estimated
Sun 02:20:00 AM -21.5676 -64.3076 160° South  Level Estimated
Sun 02:21:00 AM -21.6894 -64.2606 160° South  Level Estimated
Sun 02:22:00 AM -21.8112 -64.2136 160° South  Level Estimated
Sun 02:23:00 AM -21.9330 -64.1665 160° South  Level Estimated
Sun 02:24:00 AM -22.0548 -64.1193 160° South  Level Estimated
Sun 02:25:00 AM -22.1766 -64.0721 160° South  Level Estimated
Sun 02:26:00 AM -22.2983 -64.0247 160° South  Level Estimated
Sun 02:27:00 AM -22.4200 -63.9773 160° South  Level Estimated
Sun 02:28:00 AM -22.5418 -63.9298 160° South  Level Estimated
Sun 02:29:00 AM -22.6635 -63.8822 160° South  Level Estimated
Sun 02:30:00 AM -22.7852 -63.8345 160° South  Level Estimated
Sun 02:31:00 AM -22.9068 -63.7867 160° South  Level Estimated
Sun 02:32:00 AM -23.0285 -63.7389 160° South  Level Estimated
Sun 02:33:00 AM -23.1501 -63.6909 160° South  Level Estimated
Sun 02:34:00 AM -23.2718 -63.6429 160° South  Level Estimated
Sun 02:35:00 AM -23.3934 -63.5948 160° South  Level Estimated
Sun 02:36:00 AM -23.5150 -63.5466 160° South  Level Estimated
Sun 02:37:00 AM -23.6366 -63.4983 160° South  Level Estimated
Sun 02:38:00 AM -23.7582 -63.4499 160° South  Level Estimated
Sun 02:39:00 AM -23.8797 -63.4015 160° South  Level Estimated
Sun 02:40:00 AM -24.0012 -63.3529 160° South  Level Estimated
Sun 02:41:00 AM -24.1228 -63.3042 160° South  Level Estimated
Sun 02:42:00 AM -24.2443 -63.2555 160° South  Level Estimated
Sun 02:43:00 AM -24.3658 -63.2066 160° South  Level Estimated
Sun 02:44:00 AM -24.4873 -63.1577 160° South  Level Estimated
Sun 02:45:00 AM -24.6087 -63.1087 160° South  Level Estimated
Sun 02:46:00 AM -24.7302 -63.0596 160° South  Level Estimated
Sun 02:47:00 AM -24.8516 -63.0103 160° South  Level Estimated
Sun 02:48:00 AM -24.9730 -62.9610 160° South  Level Estimated
Sun 02:49:00 AM -25.0944 -62.9116 160° South  Level Estimated
Sun 02:50:00 AM -25.2158 -62.8621 160° South  Level Estimated
Sun 02:51:00 AM -25.3372 -62.8125 160° South  Level Estimated
Sun 02:52:00 AM -25.4585 -62.7628 160° South  Level Estimated
Sun 02:53:00 AM -25.5799 -62.7130 160° South  Level Estimated
Sun 02:54:00 AM -25.7012 -62.6630 160° South  Level Estimated
Sun 02:55:00 AM -25.8225 -62.6130 160° South  Level Estimated
Sun 02:56:00 AM -25.9438 -62.5629 160° South  Level Estimated
Sun 02:57:00 AM -26.0651 -62.5127 160° South  Level Estimated
Sun 02:58:00 AM -26.1863 -62.4623 160° South  Level Estimated
Sun 02:59:00 AM -26.3075 -62.4119 160° South  Level Estimated
Sun 03:00:00 AM -26.4287 -62.3614 160° South  Level Estimated
Sun 03:01:00 AM -26.5499 -62.3107 160° South  Level Estimated
Sun 03:02:00 AM -26.6711 -62.2600 159° South  Level Estimated
Sun 03:03:00 AM -26.7923 -62.2091 159° South  Level Estimated
Sun 03:04:00 AM -26.9134 -62.1582 159° South  Level Estimated
Sun 03:05:00 AM -27.0345 -62.1071 159° South  Level Estimated
Sun 03:06:00 AM -27.1557 -62.0559 159° South  Level Estimated
Sun 03:07:00 AM -27.2768 -62.0046 159° South  Level Estimated
Sun 03:08:00 AM -27.3978 -61.9532 159° South  Level Estimated
Sun 03:09:00 AM -27.5189 -61.9017 159° South  Level Estimated
Sun 03:10:00 AM -27.6399 -61.8500 159° South  Level Estimated
Sun 03:11:00 AM -27.7609 -61.7983 159° South  Level Estimated
Sun 03:12:00 AM -27.8819 -61.7464 159° South  Level Estimated
Sun 03:13:00 AM -28.0029 -61.6944 159° South  Level Estimated
Sun 03:14:00 AM -28.1238 -61.6423 159° South  Level Estimated
Sun 03:15:00 AM -28.2447 -61.5901 159° South  Level Estimated
Sun 03:16:00 AM -28.3657 -61.5378 159° South  Level Estimated
Sun 03:17:00 AM -28.4865 -61.4854 159° South  Level Estimated
Sun 03:18:00 AM -28.6074 -61.4328 159° South  Level Estimated
Sun 03:19:00 AM -28.7283 -61.3801 159° South  Level Estimated
Sun 03:20:00 AM -28.8491 -61.3273 159° South  Level Estimated
Sun 03:21:00 AM -28.9699 -61.2743 159° South  Level Estimated
Sun 03:22:00 AM -29.0907 -61.2213 159° South  Level Estimated
Sun 03:23:00 AM -29.2115 -61.1681 159° South  Level Estimated
Sun 03:24:00 AM -29.3322 -61.1148 159° South  Level Estimated
Sun 03:25:00 AM -29.4529 -61.0613 159° South  Level Estimated
Sun 03:26:00 AM -29.5737 -61.0078 159° South  Level Estimated
Sun 03:27:00 AM -29.6943 -60.9541 159° South  Level Estimated
Sun 03:28:00 AM -29.8150 -60.9002 159° South  Level Estimated
Sun 03:29:00 AM -29.9356 -60.8463 159° South  Level Estimated
Sun 03:30:00 AM -30.0563 -60.7922 159° South  Level Estimated
Sun 03:31:00 AM -30.1769 -60.7380 159° South  Level Estimated
Sun 03:32:00 AM -30.2974 -60.6837 159° South  Level Estimated
Sun 03:33:00 AM -30.4180 -60.6292 159° South  Level Estimated
Sun 03:34:00 AM -30.5385 -60.5746 159° South  Level Estimated
Sun 03:35:00 AM -30.6590 -60.5198 159° South  Level Estimated
Sun 03:36:00 AM -30.7795 -60.4649 159° South  Level Estimated
Sun 03:37:00 AM -30.9000 -60.4099 159° South  Level Estimated
Sun 03:38:00 AM -31.0204 -60.3547 159° South  Level Estimated
Sun 03:39:00 AM -31.1408 -60.2994 159° South  Level Estimated
Sun 03:40:00 AM -31.2612 -60.2439 159° South  Level Estimated
Sun 03:41:00 AM -31.3816 -60.1884 158° South  Level Estimated
Sun 03:42:00 AM -31.5019 -60.1326 158° South  Level Estimated
Sun 03:43:00 AM -31.6222 -60.0768 158° South  Level Estimated
Sun 03:44:00 AM -31.7425 -60.0207 158° South  Level Estimated
Sun 03:45:00 AM -31.8628 -59.9646 158° South  Level Estimated
Sun 03:46:00 AM -31.9830 -59.9083 158° South  Level Estimated
Sun 03:47:00 AM -32.1032 -59.8518 158° South  Level Estimated
Sun 03:48:00 AM -32.2234 -59.7952 158° South  Level Estimated
Sun 03:49:00 AM -32.3436 -59.7384 158° South  Level Estimated
Sun 03:50:00 AM -32.4637 -59.6815 158° South  Level Estimated
Sun 03:51:00 AM -32.5839 -59.6245 158° South  Level Estimated
Sun 03:52:00 AM -32.7040 -59.5672 158° South  Level Estimated
Sun 03:53:00 AM -32.8240 -59.5099 158° South  Level Estimated
Sun 03:54:00 AM -32.9441 -59.4524 158° South  Level Estimated
Sun 03:55:00 AM -33.0641 -59.3947 158° South  Level Estimated
Sun 03:56:00 AM -33.1841 -59.3368 158° South  Level Estimated
Sun 03:57:00 AM -33.3040 -59.2788 158° South  Level Estimated
Sun 03:58:00 AM -33.4240 -59.2207 158° South  Level Estimated
Sun 03:59:00 AM -33.5439 -59.1624 158° South  Level Estimated
Sun 04:00:00 AM -33.6637 -59.1039 158° South  Level Estimated
Sun 04:00:33 AM -33.3900 -59.4970 158° South 404 465 23,600  Level FlightAware ADS-B
Sun 04:01:00 AM -33.7836 -59.0452 158° South  Level Estimated
Sun 04:01:10 AM -33.4560 -59.4690 161° South 398 458 22,500  Level FlightAware ADS-B
Sun 04:01:50 AM -33.5260 -59.4390 160° South 395 455 21,200 -1,725 Descending FlightAware ADS-B
Sun 04:02:30 AM -33.5920 -59.4100 160° South 390 449 20,200 -1,875 Descending FlightAware ADS-B
Sun 04:03:10 AM -33.6620 -59.3800 160° South 396 456 18,700 -1,975 Descending FlightAware ADS-B
Sun 04:03:49 AM -33.7290 -59.3510 160° South 397 457 17,600 -1,650 Descending FlightAware ADS-B
Sun 04:04:30 AM -33.8000 -59.3200 160° South 389 448 16,500 -1,481 Descending FlightAware ADS-B
Sun 04:05:10 AM -33.8670 -59.2910 160° South 379 436 15,600 -1,342 Descending FlightAware ADS-B
Sun 04:05:46 AM -33.9260 -59.2650 160° South 374 430 14,800 -1,385 Descending FlightAware ADS-B
Sun 04:06:28 AM -33.9950 -59.2350 160° South 370 426 13,800 -1,326 Descending FlightAware ADS-B
Sun 04:07:12 AM -34.0650 -59.2040 160° South 362 417 12,900 -1,286 Descending FlightAware ADS-B
Sun 04:07:52 AM -34.1270 -59.1770 160° South 353 406 12,000 -1,357 Descending FlightAware ADS-B
Sun 04:08:36 AM -34.1940 -59.1480 160° South 341 392 11,000 -1,000 Descending FlightAware ADS-B
Sun 04:09:16 AM -34.2510 -59.1230 160° South 322 371 10,600 -571 Descending FlightAware ADS-B
Sun 04:10:00 AM -34.3120 -59.0960 160° South 301 346 10,200 -500 Descending FlightAware ADS-B
Sun 04:10:28 AM -34.3470 -59.0810 161° South 289 333 10,000 -750 Descending FlightAware ADS-B
Sun 04:10:56 AM -34.3830 -59.0650 160° South 285 328 9,500 -792 Descending FlightAware ADS-B
Sun 04:11:21 AM -34.3940 -59.0600 159° South 277 319 9,300 -1,080 Descending FlightAware ADS-B
Sun 04:11:46 AM -34.4440 -59.0380 160° South 272 313 8,600 -1,350 Descending FlightAware ADS-B
Sun 04:12:01 AM -34.4620 -59.0300 160° South 279 321 8,400 -933 Descending FlightAware ADS-B
Sun 04:12:31 AM -34.4980 -59.0140 160° South 275 316 7,900 -1,000 Descending FlightAware ADS-B
Sun 04:13:01 AM -34.5330 -58.9990 161° South 272 313 7,400 -1,050 Descending FlightAware ADS-B
Sun 04:13:11 AM -34.5460 -58.9930 159° South 271 312 7,200 -900 Descending FlightAware ADS-B
Sun 04:13:41 AM -34.5800 -58.9780 160° South 259 298 6,800 -700 Descending FlightAware ADS-B
Sun 04:14:11 AM -34.6150 -58.9620 159° South 246 283 6,500 -533 Descending FlightAware ADS-B
Sun 04:14:26 AM -34.6310 -58.9550 160° South 244 281 6,400 -600 Descending FlightAware ADS-B
Sun 04:14:51 AM -34.6570 -58.9430 159° South 226 260 6,100 -960 Descending FlightAware ADS-B
Sun 04:15:16 AM -34.6820 -58.9320 160° South 224 258 5,600 -1,200 Descending FlightAware ADS-B
Sun 04:15:36 AM -34.7030 -58.9230 161° South 228 262 5,200 -900 Descending FlightAware ADS-B
Sun 04:15:56 AM -34.7240 -58.9140 161° South 228 262 5,000 -218 Descending FlightAware ADS-B
Sun 04:16:31 AM -34.7590 -58.8940 155° Southeast 245 282 5,000 -360 Level FlightAware ADS-B
Sun 04:16:46 AM -34.7660 -58.8770 117° Southeast 262 302 4,700 -1,200 Descending FlightAware ADS-B
Sun 04:17:06 AM -34.7670 -58.8450 92° East 264 304 4,300 -1,200 Descending FlightAware ADS-B
Sun 04:17:21 AM -34.7700 -58.8260 101° East 263 303 4,000 -1,500 Descending FlightAware ADS-B
Sun 04:17:46 AM -34.7770 -58.7870 102° East 266 306 3,300 -1,309 Descending FlightAware ADS-B
Sun 04:18:16 AM -34.7850 -58.7440 103° East 242 278 2,800 -900 Descending FlightAware ADS-B
Sun 04:18:46 AM -34.7910 -58.7080 101° East 205 236 2,400 -840 Descending FlightAware ADS-B
Sun 04:19:06 AM -34.7950 -58.6850 102° East 192 221 2,100 -800 Descending FlightAware ADS-B
Sun 04:19:31 AM -34.8000 -58.6610 104° East 175 201 1,800 -900 Descending FlightAware ADS-B
Sun 04:19:46 AM -34.8020 -58.6460 99° East 163 188 1,500 -900 Descending FlightAware ADS-B
Sun 04:20:11 AM -34.8060 -58.6250 103° East 148 170 1,200 -764 Descending FlightAware ADS-B
Sun 04:20:41 AM -34.8110 -58.6010 104° East 143 165 800 -750 Descending FlightAware ADS-B
Sun 04:21:07 AM -34.8140 -58.5810 100° East 151 174 500 -615 Descending FlightAware ADS-B
Sun 04:21:20 AM -34.8150 -58.5750 101° East 153 176 400 -462 Descending FlightAware ADS-B
Sun 04:21:59 AM -34.8210 -58.5400 102° East 152 175 100 -462 Descending FlightAware ADS-B
Sun 04:24:00 AM -34.8235 -58.5288 147° Southeast  Level Estimated
Sun 04:25:00 AM -34.8235 -58.5288 147° Southeast  Level Estimated
Sun 04:26:00 AM -34.8235 -58.5288 147° Southeast  Level Estimated

Login

Don't have an account? Register now (free) for customized features, flight alerts, and more!